Time;durP1;ratioP1;P1;durP2;ratioP2;P2;SDS_P1;SDS_P2;PMS_P1;PMS_P2;Temp;Humidity;BMP_temperature;BMP_pressure;BME280_temperature;BME280_humidity;BME280_pressure;Samples;Min_cycle;Max_cycle;Signal;HPM_P1;HPM_P2
2024/02/13 00:01:58;;;;;;;35.70;19.80;;;;;;;7.37;78.10;98199.16;106435;1255;96581;-81
2024/02/13 00:04:25;;;;;;;36.50;19.70;;;;;;;7.35;78.24;98199.88;105591;1264;107377;-80
2024/02/13 00:06:57;;;;;;;35.60;18.50;;;;;;;7.34;78.15;98203.48;107548;1255;96569;-81
2024/02/13 00:09:25;;;;;;;35.20;18.80;;;;;;;7.33;78.09;98204.75;105596;1258;96673;-81
2024/02/13 00:11:53;;;;;;;32.30;18.30;;;;;;;7.34;78.09;98207.30;105616;1255;109900;-80
2024/02/13 00:14:21;;;;;;;34.00;18.30;;;;;;;7.34;78.06;98208.22;106547;1256;96508;-79
2024/02/13 00:16:49;;;;;;;33.00;18.00;;;;;;;7.32;77.95;98211.69;105337;1251;108181;-80
2024/02/13 00:19:17;;;;;;;32.30;18.00;;;;;;;7.30;78.00;98210.96;106021;1254;97518;-80
2024/02/13 00:21:48;;;;;;;29.80;16.60;;;;;;;7.28;77.98;98212.02;107979;1254;96473;-78
2024/02/13 00:24:16;;;;;;;35.30;16.70;;;;;;;7.26;77.95;98216.04;105575;1256;109779;-80
2024/02/13 00:26:46;;;;;;;31.60;17.90;;;;;;;7.24;78.24;98220.05;106233;1258;96597;-80
2024/02/13 00:29:14;;;;;;;29.90;16.10;;;;;;;7.21;77.92;98219.34;105620;1255;107529;-79
2024/02/13 00:31:43;;;;;;;31.70;17.10;;;;;;;7.20;78.17;98224.77;105700;1256;96586;-80
2024/02/13 00:34:11;;;;;;;26.40;15.90;;;;;;;7.17;77.90;98227.41;105583;1255;96577;-81
2024/02/13 00:36:39;;;;;;;31.60;15.90;;;;;;;7.14;78.10;98229.37;106190;1251;109893;-80
2024/02/13 00:39:07;;;;;;;33.20;17.50;;;;;;;7.13;78.05;98230.55;106721;1256;96751;-79
2024/02/13 00:41:35;;;;;;;24.50;14.10;;;;;;;7.12;78.26;98232.72;106333;1253;107566;-79
2024/02/13 00:44:04;;;;;;;30.00;15.10;;;;;;;7.12;78.17;98232.91;108560;1251;94560;-79
2024/02/13 00:46:34;;;;;;;26.90;15.00;;;;;;;7.11;78.23;98229.79;106668;1255;96504;-79
2024/02/13 00:49:03;;;;;;;25.80;14.50;;;;;;;7.10;78.17;98232.54;105562;1256;109945;-79
2024/02/13 00:51:32;;;;;;;23.90;13.60;;;;;;;7.08;78.25;98236.14;105357;1255;96587;-80
2024/02/13 00:53:59;;;;;;;23.20;13.70;;;;;;;7.07;78.45;98233.42;105449;1258;107774;-79
2024/02/13 00:56:27;;;;;;;24.80;12.80;;;;;;;7.07;78.25;98232.38;105541;1256;96572;-80
2024/02/13 00:59:02;;;;;;;22.30;11.40;;;;;;;7.05;78.42;98232.89;105695;1255;97511;-80
2024/02/13 01:01:30;;;;;;;20.00;11.00;;;;;;;7.03;78.30;98232.69;105595;1254;109842;-78
2024/02/13 01:03:57;;;;;;;21.10;11.50;;;;;;;7.00;78.36;98235.14;108406;1251;96440;-79
2024/02/13 01:06:27;;;;;;;20.30;11.10;;;;;;;6.98;78.44;98232.97;107026;1253;107604;-79
2024/02/13 01:08:56;;;;;;;17.20;10.10;;;;;;;6.99;78.39;98232.92;105608;1258;96746;-79
2024/02/13 01:11:24;;;;;;;17.90;9.00;;;;;;;7.00;78.53;98239.41;106755;1256;96589;-80
2024/02/13 01:13:52;;;;;;;18.20;10.30;;;;;;;6.98;78.30;98237.57;105629;1256;109931;-81
2024/02/13 01:16:22;;;;;;;16.10;9.50;;;;;;;6.96;78.39;98239.48;105235;1258;96537;-80
2024/02/13 01:18:51;;;;;;;19.50;9.40;;;;;;;6.92;78.49;98245.40;107265;1254;109148;-78
2024/02/13 01:21:22;;;;;;;17.90;9.10;;;;;;;6.92;78.48;98246.33;105840;1255;97042;-79
2024/02/13 01:23:50;;;;;;;17.90;8.70;;;;;;;6.91;78.38;98249.19;106032;1255;96593;-79
2024/02/13 01:26:19;;;;;;;14.90;9.00;;;;;;;6.89;78.32;98248.09;105592;1255;109455;-80
2024/02/13 01:28:47;;;;;;;16.10;9.50;;;;;;;6.88;78.43;98250.97;105819;1254;96601;-80
2024/02/13 01:31:15;;;;;;;17.60;9.10;;;;;;;6.87;78.37;98250.39;106008;1254;107469;-81
2024/02/13 01:33:43;;;;;;;14.80;8.90;;;;;;;6.86;78.48;98251.29;107535;1253;96638;-80
2024/02/13 01:36:12;;;;;;;15.60;8.70;;;;;;;6.85;78.35;98253.98;105755;1257;96726;-80
2024/02/13 01:38:40;;;;;;;17.70;8.90;;;;;;;6.86;78.21;98257.15;106812;1253;109927;-80
2024/02/13 01:41:09;;;;;;;14.40;8.30;;;;;;;6.83;78.62;98256.23;105734;1255;97525;-79
2024/02/13 01:43:37;;;;;;;19.90;9.30;;;;;;;6.82;78.55;98256.49;105702;1257;107799;-78
2024/02/13 01:46:06;;;;;;;19.10;9.90;;;;;;;6.80;78.64;98258.93;108612;1255;94653;-79
2024/02/13 01:48:36;;;;;;;13.00;7.80;;;;;;;6.79;78.44;98262.50;105369;1257;96639;-80
2024/02/13 01:51:07;;;;;;;13.80;7.40;;;;;;;6.79;78.49;98263.39;106901;1255;108349;-80
2024/02/13 01:53:36;;;;;;;14.40;7.60;;;;;;;6.78;78.37;98260.88;105752;1256;96596;-80
2024/02/13 01:56:05;;;;;;;14.10;7.70;;;;;;;6.76;78.43;98262.92;106759;1254;107637;-80
2024/02/13 01:58:34;;;;;;;14.70;7.80;;;;;;;6.74;78.54;98261.67;105667;1256;96674;-80
2024/02/13 02:01:04;;;;;;;13.50;7.60;;;;;;;6.70;78.38;98263.47;107718;1253;96494;-82
2024/02/13 02:03:34;;;;;;;13.00;6.80;;;;;;;6.69;78.52;98267.30;105558;1266;109883;-80
2024/02/13 02:06:03;;;;;;;14.20;6.80;;;;;;;6.66;78.55;98270.80;105987;1256;96598;-81
2024/02/13 02:08:33;;;;;;;10.30;6.70;;;;;;;6.64;78.24;98277.52;108170;1253;108273;-81
2024/02/13 02:11:02;;;;;;;12.70;8.10;;;;;;;6.64;78.33;98277.67;105964;1256;96651;-82
2024/02/13 02:13:31;;;;;;;11.30;6.30;;;;;;;6.65;78.54;98279.54;105730;1255;96607;-81
2024/02/13 02:15:59;;;;;;;15.30;7.10;;;;;;;6.66;78.44;98285.25;107698;1255;110111;-79
2024/02/13 02:18:27;;;;;;;15.60;7.50;;;;;;;6.67;78.30;98289.10;105539;1254;97463;-80
2024/02/13 02:20:56;;;;;;;15.30;7.60;;;;;;;6.65;78.23;98292.04;105558;1256;107609;-78
2024/02/13 02:23:26;;;;;;;11.30;6.90;;;;;;;6.65;78.16;98290.13;105656;1256;97816;-79
2024/02/13 02:25:54;;;;;;;12.20;6.20;;;;;;;6.62;78.30;98290.67;106722;1252;96620;-79
2024/02/13 02:28:24;;;;;;;9.80;5.80;;;;;;;6.61;78.28;98292.88;107328;1256;109948;-80
2024/02/13 02:30:52;;;;;;;12.50;6.90;;;;;;;6.60;78.10;98289.03;105686;1256;96594;-79
2024/02/13 02:33:21;;;;;;;14.10;6.70;;;;;;;6.59;78.18;98293.73;106405;1256;107611;-80
2024/02/13 02:35:49;;;;;;;14.20;6.90;;;;;;;6.57;78.32;98294.51;106936;1255;96638;-79
2024/02/13 02:38:20;;;;;;;11.10;6.70;;;;;;;6.56;77.94;98297.44;107491;1254;96498;-80
2024/02/13 02:40:49;;;;;;;16.50;7.20;;;;;;;6.53;78.15;98301.52;108549;1253;109477;-79
2024/02/13 02:43:17;;;;;;;13.00;6.30;;;;;;;6.51;78.16;98303.22;105580;1264;96593;-80
2024/02/13 02:45:45;;;;;;;12.30;6.00;;;;;;;6.48;78.02;98304.98;105783;1255;107686;-81
2024/02/13 02:48:15;;;;;;;13.40;5.60;;;;;;;6.47;77.97;98303.66;105708;1257;96588;-80
2024/02/13 02:50:43;;;;;;;11.80;5.80;;;;;;;6.46;77.82;98310.20;105404;1266;97848;-80
2024/02/13 02:53:11;;;;;;;11.50;5.90;;;;;;;6.42;77.60;98318.05;105313;1257;107816;-79
2024/02/13 02:55:40;;;;;;;10.30;4.90;;;;;;;6.41;77.70;98323.28;108339;1251;96370;-79
2024/02/13 02:58:08;;;;;;;11.50;5.80;;;;;;;6.38;77.57;98324.31;105606;1257;107745;-80
2024/02/13 03:00:36;;;;;;;10.80;5.60;;;;;;;6.36;77.57;98329.71;105602;1253;97891;-79
2024/02/13 03:03:04;;;;;;;9.50;5.60;;;;;;;6.34;77.61;98334.45;106019;1256;96581;-81
2024/02/13 03:05:33;;;;;;;13.60;5.60;;;;;;;6.32;77.64;98334.91;105883;1256;109714;-80
2024/02/13 03:08:02;;;;;;;13.20;5.90;;;;;;;6.29;77.45;98336.36;105898;1256;97538;-80
2024/02/13 03:10:29;;;;;;;10.60;5.30;;;;;;;6.28;77.67;98338.40;105832;1255;107067;-81
2024/02/13 03:12:58;;;;;;;9.60;5.80;;;;;;;6.28;77.77;98341.20;105820;1258;97532;-79
2024/02/13 03:15:27;;;;;;;12.80;5.70;;;;;;;6.27;77.42;98346.02;105724;1268;97411;-80
2024/02/13 03:17:55;;;;;;;11.80;5.90;;;;;;;6.24;77.52;98354.82;105780;1256;109820;-80
2024/02/13 03:20:23;;;;;;;10.10;5.30;;;;;;;6.21;77.26;98359.07;106324;1255;96669;-80
2024/02/13 03:22:51;;;;;;;8.70;5.30;;;;;;;6.21;77.58;98365.24;105381;1264;107431;-81
2024/02/13 03:25:19;;;;;;;10.50;5.40;;;;;;;6.20;77.41;98367.41;106102;1258;96566;-80
2024/02/13 03:27:47;;;;;;;11.10;4.90;;;;;;;6.20;77.51;98369.35;106657;1256;96532;-80
2024/02/13 03:30:15;;;;;;;7.60;4.80;;;;;;;6.20;77.49;98372.02;106347;1256;109814;-81
2024/02/13 03:32:44;;;;;;;8.10;4.70;;;;;;;6.18;77.46;98374.23;105852;1255;96611;-81
2024/02/13 03:35:13;;;;;;;9.70;5.70;;;;;;;6.17;77.50;98383.80;106574;1256;107080;-80
2024/02/13 03:37:41;;;;;;;8.60;4.80;;;;;;;6.13;77.34;98386.16;107121;1251;96576;-80
2024/02/13 03:40:10;;;;;;;9.00;4.90;;;;;;;6.11;77.32;98389.46;105280;1251;96583;-80
2024/02/13 03:42:38;;;;;;;8.20;4.90;;;;;;;6.11;77.10;98390.86;105597;1256;109832;-80
2024/02/13 03:45:07;;;;;;;11.00;5.60;;;;;;;6.11;77.29;98394.60;105803;1256;97950;-81
2024/02/13 03:47:34;;;;;;;8.50;5.60;;;;;;;6.09;77.26;98396.14;105869;1254;107663;-80
2024/02/13 03:50:03;;;;;;;9.10;4.90;;;;;;;6.06;77.10;98398.43;105981;1251;96628;-80
2024/02/13 03:52:35;;;;;;;7.80;4.70;;;;;;;6.04;77.24;98403.32;105515;1251;96740;-80
2024/02/13 03:55:05;;;;;;;8.80;4.60;;;;;;;6.00;77.22;98407.08;105727;1257;109383;-80
2024/02/13 03:57:35;;;;;;;8.00;4.50;;;;;;;5.97;77.13;98403.40;107253;1255;96581;-81
2024/02/13 04:00:07;;;;;;;8.40;4.50;;;;;;;5.94;77.07;98400.56;105383;1260;109590;-79
2024/02/13 04:02:39;;;;;;;10.10;4.90;;;;;;;5.93;77.16;98400.13;105658;1256;97806;-80
2024/02/13 04:05:07;;;;;;;9.50;4.40;;;;;;;5.91;77.05;98406.40;105734;1256;96655;-80
2024/02/13 04:07:35;;;;;;;7.60;3.90;;;;;;;5.89;77.04;98408.48;105746;1256;109567;-80
2024/02/13 04:10:04;;;;;;;12.60;4.60;;;;;;;5.89;77.14;98410.42;106146;1256;97897;-81
2024/02/13 04:12:34;;;;;;;10.20;4.70;;;;;;;5.85;77.06;98408.58;105469;1266;107612;-80
2024/02/13 04:15:03;;;;;;;7.70;5.30;;;;;;;5.82;76.90;98413.81;105460;1256;96674;-80
2024/02/13 04:17:31;;;;;;;7.30;4.60;;;;;;;5.81;76.92;98414.42;105820;1257;96623;-81
2024/02/13 04:19:59;;;;;;;9.20;4.60;;;;;;;5.78;77.02;98421.10;105647;1256;109393;-80
2024/02/13 04:22:27;;;;;;;7.00;4.00;;;;;;;5.76;76.91;98419.64;105576;1267;96533;-80
2024/02/13 04:24:55;;;;;;;8.00;5.10;;;;;;;5.75;76.72;98426.05;106123;1257;107697;-80
2024/02/13 04:27:23;;;;;;;7.90;4.70;;;;;;;5.71;76.74;98430.53;105829;1256;97295;-79
2024/02/13 04:29:51;;;;;;;9.70;4.80;;;;;;;5.67;76.83;98432.17;105608;1256;96722;-80
2024/02/13 04:32:19;;;;;;;10.80;5.90;;;;;;;5.62;76.89;98432.70;105916;1254;109939;-81
2024/02/13 04:34:47;;;;;;;8.20;4.70;;;;;;;5.62;76.94;98436.36;105737;1254;96514;-79
2024/02/13 04:37:15;;;;;;;8.70;4.60;;;;;;;5.61;76.95;98438.56;106411;1251;105791;-79
2024/02/13 04:39:42;;;;;;;8.40;5.10;;;;;;;5.57;76.81;98440.89;105649;1257;96587;-79
2024/02/13 04:42:11;;;;;;;8.70;5.00;;;;;;;5.57;76.66;98442.30;107480;1251;97487;-80
2024/02/13 04:44:39;;;;;;;8.10;5.40;;;;;;;5.55;76.76;98443.66;105801;1256;109478;-80
2024/02/13 04:47:07;;;;;;;12.20;5.00;;;;;;;5.52;76.81;98451.39;105519;1257;97498;-80
2024/02/13 04:49:35;;;;;;;8.90;4.80;;;;;;;5.51;76.99;98455.34;105297;1256;107537;-81
2024/02/13 04:52:04;;;;;;;8.70;4.90;;;;;;;5.48;76.92;98462.75;106076;1254;96611;-83
2024/02/13 04:54:32;;;;;;;10.60;5.30;;;;;;;5.46;76.95;98463.34;108091;1251;94885;-82
2024/02/13 04:57:00;;;;;;;11.50;5.70;;;;;;;5.46;76.92;98467.42;107436;1254;109724;-82
2024/02/13 04:59:37;;;;;;;7.90;5.10;;;;;;;5.44;76.80;98471.37;105842;1251;97402;-82
2024/02/13 05:02:05;;;;;;;9.20;5.20;;;;;;;5.42;76.86;98475.93;105615;1264;108942;-79
2024/02/13 05:07:23;;;;;;;9.00;4.70;;;;;;;5.41;76.96;98483.39;105510;1267;96709;-80
2024/02/13 05:09:52;;;;;;;10.80;5.40;;;;;;;5.39;76.97;98488.80;108486;1251;109899;-74
2024/02/13 05:12:21;;;;;;;12.30;5.00;;;;;;;5.35;77.06;98493.56;106431;1254;97957;-78
2024/02/13 05:14:49;;;;;;;9.30;4.70;;;;;;;5.34;76.98;98497.14;107135;1254;107327;-81
2024/02/13 05:17:20;;;;;;;10.60;5.70;;;;;;;5.34;77.08;98497.33;105842;1257;97539;-80
2024/02/13 05:19:49;;;;;;;9.00;5.70;;;;;;;5.31;77.16;98500.46;105657;1254;96604;-80
2024/02/13 05:22:32;;;;;;;8.90;5.40;;;;;;;5.28;77.25;98502.06;106090;1254;111722;-78
2024/02/13 05:25:57;;;;;;;10.20;4.70;;;;;;;5.30;77.16;98511.77;106737;1256;96587;-79
2024/02/13 05:29:03;;;;;;;8.70;5.60;;;;;;;5.31;77.23;98512.28;105716;1256;107224;-79
2024/02/13 05:32:18;;;;;;;;;;;;;;;;;;;;;
2024/02/13 05:35:24;;;;;;;7.70;4.90;;;;;;;5.28;77.32;98528.98;106316;1257;96597;-79
2024/02/13 05:38:28;;;;;;;10.90;5.20;;;;;;;5.26;77.31;98540.67;106257;1255;109435;-75
2024/02/13 05:40:56;;;;;;;10.30;5.60;;;;;;;5.29;77.27;98541.96;108483;1251;95462;-76
2024/02/13 05:43:24;;;;;;;10.40;5.30;;;;;;;5.30;77.41;98546.64;105605;1256;109364;-76
2024/02/13 05:45:52;;;;;;;11.70;5.30;;;;;;;5.31;77.25;98553.41;105822;1258;96578;-76
2024/02/13 05:48:20;;;;;;;8.80;4.80;;;;;;;5.32;77.38;98558.64;106027;1256;96616;-76
2024/02/13 05:50:50;;;;;;;9.60;5.30;;;;;;;5.31;77.22;98564.69;107936;1254;109823;-76
2024/02/13 05:53:19;;;;;;;12.20;6.10;;;;;;;5.28;77.42;98571.02;108198;1251;96607;-75
2024/02/13 05:55:48;;;;;;;9.20;5.00;;;;;;;5.26;77.40;98572.52;105823;1251;107600;-75
2024/02/13 05:58:17;;;;;;;9.60;5.40;;;;;;;5.26;77.33;98577.30;105424;1258;97520;-74
2024/02/13 06:00:45;;;;;;;11.40;4.70;;;;;;;5.24;77.35;98583.55;106222;1251;94969;-75
2024/02/13 06:03:13;;;;;;;8.60;4.90;;;;;;;5.22;77.40;98587.54;105537;1251;109030;-75
2024/02/13 06:05:41;;;;;;;9.80;4.90;;;;;;;5.18;77.39;98588.78;106338;1251;96507;-75
2024/02/13 06:08:09;;;;;;;9.80;4.60;;;;;;;5.18;77.44;98597.79;105532;1255;107238;-75
2024/02/13 06:10:39;;;;;;;8.90;4.70;;;;;;;5.18;77.25;98600.23;105779;1256;98004;-75
2024/02/13 06:13:07;;;;;;;11.10;5.40;;;;;;;5.15;77.39;98603.58;106560;1251;96576;-75
2024/02/13 06:15:36;;;;;;;7.70;4.40;;;;;;;5.13;77.42;98609.48;105736;1256;109557;-75
2024/02/13 06:18:05;;;;;;;8.00;4.50;;;;;;;5.12;77.37;98611.48;105649;1251;97432;-76
2024/02/13 06:20:33;;;;;;;7.40;4.60;;;;;;;5.10;77.30;98618.42;105746;1256;107637;-75
2024/02/13 06:23:01;;;;;;;8.20;5.00;;;;;;;5.06;77.30;98618.69;105441;1258;96692;-75
2024/02/13 06:25:30;;;;;;;11.60;5.40;;;;;;;5.03;77.25;98624.65;107937;1255;96626;-75
2024/02/13 06:27:58;;;;;;;9.30;5.00;;;;;;;5.02;77.34;98625.55;107516;1254;109951;-75
2024/02/13 06:30:26;;;;;;;11.60;5.90;;;;;;;5.03;77.46;98629.70;105426;1257;98063;-76
2024/02/13 06:32:55;;;;;;;11.40;5.50;;;;;;;5.04;77.34;98633.89;106365;1251;108013;-76
2024/02/13 06:35:23;;;;;;;12.20;7.20;;;;;;;5.02;77.27;98636.81;108529;1251;94904;-74
2024/02/13 06:37:52;;;;;;;10.30;6.20;;;;;;;4.98;77.34;98644.25;108166;1254;94576;-75
2024/02/13 06:40:20;;;;;;;10.70;6.30;;;;;;;4.97;77.30;98651.52;105850;1251;109177;-76
2024/02/13 06:42:48;;;;;;;7.90;5.00;;;;;;;4.97;77.27;98655.22;105694;1257;96884;-73
2024/02/13 06:45:16;;;;;;;8.30;5.30;;;;;;;4.95;77.30;98658.67;106519;1255;107604;-75
2024/02/13 06:47:45;;;;;;;10.90;6.00;;;;;;;4.92;77.25;98664.76;105771;1254;96589;-74
2024/02/13 06:50:13;;;;;;;11.00;5.80;;;;;;;4.94;77.30;98667.48;108371;1251;130556;-75
2024/02/13 06:52:42;;;;;;;16.90;8.80;;;;;;;4.96;77.37;98670.54;106063;1251;108395;-75
2024/02/13 06:55:10;;;;;;;17.60;8.60;;;;;;;4.98;77.34;98667.61;105920;1256;97545;-76
2024/02/13 06:57:38;;;;;;;14.50;7.50;;;;;;;5.01;77.30;98671.67;105964;1251;108132;-75
2024/02/13 07:00:11;;;;;;;11.00;6.70;;;;;;;4.99;77.27;98671.96;106365;1255;96596;-75
2024/02/13 07:02:40;;;;;;;14.50;7.80;;;;;;;4.97;77.26;98675.08;107214;1252;96511;-75
2024/02/13 07:05:10;;;;;;;15.20;7.80;;;;;;;4.98;77.35;98674.48;106271;1251;109843;-76
2024/02/13 07:07:39;;;;;;;16.60;7.10;;;;;;;4.97;77.31;98676.61;108545;1251;95851;-74
2024/02/13 07:10:15;;;;;;;11.60;5.80;;;;;;;4.95;77.32;98679.94;105595;1256;107630;-75
2024/02/13 07:12:44;;;;;;;12.00;5.90;;;;;;;4.96;77.37;98685.33;105847;1256;96575;-75
2024/02/13 07:15:12;;;;;;;11.10;6.00;;;;;;;4.95;77.30;98685.18;105543;1256;97921;-75
2024/02/13 07:17:41;;;;;;;14.30;7.20;;;;;;;4.92;77.47;98690.27;105794;1251;109882;-76
2024/02/13 07:20:23;;;;;;;11.80;6.70;;;;;;;4.91;77.34;98689.60;105528;1256;96568;-75
2024/02/13 07:22:52;;;;;;;12.80;5.80;;;;;;;4.94;77.49;98689.27;106996;1251;105968;-76
2024/02/13 07:25:20;;;;;;;10.00;5.90;;;;;;;4.99;77.45;98691.65;105879;1255;96563;-75
2024/02/13 07:27:49;;;;;;;14.20;7.70;;;;;;;4.97;77.44;98697.91;107557;1254;96665;-76
2024/02/13 07:30:17;;;;;;;15.20;7.00;;;;;;;4.97;77.30;98696.34;105392;1251;109922;-76
2024/02/13 07:32:45;;;;;;;13.90;7.50;;;;;;;4.99;77.48;98701.31;106858;1253;96662;-76
2024/02/13 07:35:15;;;;;;;12.50;6.20;;;;;;;5.02;77.46;98704.83;105581;1260;107658;-75
2024/02/13 07:37:43;;;;;;;13.20;6.80;;;;;;;5.00;77.48;98711.60;107156;1251;96600;-75
2024/02/13 07:40:13;;;;;;;9.30;5.70;;;;;;;5.01;77.38;98708.59;105324;1264;96510;-72
2024/02/13 07:42:41;;;;;;;12.50;6.60;;;;;;;4.98;77.49;98712.27;106008;1256;110798;-75
2024/02/13 07:45:09;;;;;;;10.00;5.80;;;;;;;4.94;77.42;98715.09;105557;1256;96705;-75
2024/02/13 07:47:39;;;;;;;10.50;5.70;;;;;;;4.96;77.43;98718.48;107245;1251;107217;-75
2024/02/13 07:50:09;;;;;;;13.90;6.40;;;;;;;4.98;77.45;98721.05;105776;1256;96688;-75
2024/02/13 07:52:38;;;;;;;13.50;6.20;;;;;;;5.02;77.55;98719.27;106219;1251;96578;-75
2024/02/13 07:55:06;;;;;;;8.30;5.20;;;;;;;5.04;77.44;98715.24;105892;1256;110732;-75
2024/02/13 07:57:35;;;;;;;12.60;6.50;;;;;;;5.07;77.44;98720.73;106205;1252;96603;-74
2024/02/13 08:00:04;;;;;;;15.10;7.50;;;;;;;5.06;77.34;98722.01;108439;1251;107680;-75
2024/02/13 08:02:32;;;;;;;11.00;5.60;;;;;;;5.07;77.45;98724.41;105416;1251;97921;-75
2024/02/13 08:05:00;;;;;;;10.00;5.30;;;;;;;5.12;77.53;98728.69;105487;1257;96545;-76
2024/02/13 08:07:27;;;;;;;10.90;5.50;;;;;;;5.14;77.55;98727.20;106638;1251;109691;-76
2024/02/13 08:09:56;;;;;;;12.10;6.10;;;;;;;5.19;77.49;98728.16;105849;1253;96523;-75
2024/02/13 08:12:24;;;;;;;14.00;6.30;;;;;;;5.19;77.53;98732.38;105216;1251;107659;-76
2024/02/13 08:14:52;;;;;;;11.90;7.40;;;;;;;5.19;77.54;98729.54;106668;1251;96600;-76
2024/02/13 08:17:20;;;;;;;13.00;7.20;;;;;;;5.24;77.51;98728.96;107990;1251;96576;-76
2024/02/13 08:19:48;;;;;;;14.20;7.40;;;;;;;5.28;77.55;98728.89;106110;1254;109142;-76
2024/02/13 08:22:18;;;;;;;16.30;8.20;;;;;;;5.33;77.53;98733.68;107754;1251;96584;-76
2024/02/13 08:24:46;;;;;;;13.40;6.90;;;;;;;5.38;77.41;98735.87;106018;1252;106703;-75
2024/02/13 08:27:18;;;;;;;11.80;5.90;;;;;;;5.42;77.40;98739.16;105862;1256;96577;-76
2024/02/13 08:29:46;;;;;;;10.60;5.10;;;;;;;5.49;77.48;98745.78;108397;1252;94899;-74
2024/02/13 08:32:14;;;;;;;11.10;5.50;;;;;;;5.53;77.43;98746.98;105669;1256;109695;-75
2024/02/13 08:40:35;;;;;;;11.20;5.40;;;;;;;5.54;77.19;98747.13;105230;1256;108965;-75
2024/02/13 08:43:04;;;;;;;13.70;5.50;;;;;;;5.57;77.32;98745.35;106150;1251;96613;-76
2024/02/13 08:45:32;;;;;;;10.50;5.20;;;;;;;5.60;77.34;98749.77;105845;1255;96689;-75
2024/02/13 08:47:59;;;;;;;10.80;5.50;;;;;;;5.63;77.24;98752.61;105328;1258;109927;-76
2024/02/13 08:50:28;;;;;;;9.60;5.20;;;;;;;5.66;77.23;98753.10;106351;1251;97427;-76
2024/02/13 08:52:57;;;;;;;11.40;5.60;;;;;;;5.71;77.25;98754.97;105879;1255;107675;-76
2024/02/13 08:55:25;;;;;;;9.70;4.90;;;;;;;5.73;76.97;98756.42;106859;1251;96570;-75
2024/02/13 08:57:53;;;;;;;12.80;6.00;;;;;;;5.75;77.12;98756.98;105740;1251;97127;-76
2024/02/13 09:00:21;;;;;;;11.40;6.30;;;;;;;5.82;77.09;98754.85;105600;1252;109569;-76
2024/02/13 09:02:49;;;;;;;15.50;5.60;;;;;;;5.90;77.11;98762.64;106531;1251;96578;-75
2024/02/13 09:05:17;;;;;;;10.70;5.50;;;;;;;5.94;76.88;98764.36;106229;1256;107572;-75
2024/02/13 09:07:45;;;;;;;7.30;4.70;;;;;;;5.98;76.98;98769.06;105818;1251;96616;-76
2024/02/13 09:10:13;;;;;;;11.30;6.60;;;;;;;6.03;76.89;98769.17;105668;1256;96594;-76
2024/02/13 09:12:45;;;;;;;10.30;5.90;;;;;;;6.08;76.94;98776.22;105473;1250;109386;-75
2024/02/13 09:15:13;;;;;;;12.00;5.80;;;;;;;6.15;76.90;98781.85;105605;1263;97105;-75
2024/02/13 09:17:43;;;;;;;11.50;6.20;;;;;;;6.16;76.65;98784.43;105416;1258;107262;-76
2024/02/13 09:20:15;;;;;;;11.00;5.50;;;;;;;6.21;76.60;98785.15;107435;1251;96533;-75
2024/02/13 09:22:44;;;;;;;9.60;4.60;;;;;;;6.26;76.71;98786.11;108497;1251;94707;-75
2024/02/13 09:25:16;;;;;;;10.00;5.30;;;;;;;6.26;76.17;98790.50;105627;1256;108960;-76
2024/02/13 09:27:47;;;;;;;11.20;5.40;;;;;;;6.25;76.21;98785.98;105809;1256;96673;-76
2024/02/13 09:30:17;;;;;;;11.10;6.30;;;;;;;6.31;76.32;98791.08;105689;1256;107689;-75
2024/02/13 09:32:48;;;;;;;23.90;11.30;;;;;;;6.36;76.20;98790.59;106111;1253;96606;-76
2024/02/13 09:35:16;;;;;;;13.40;6.20;;;;;;;6.41;76.21;98789.45;106013;1251;96604;-75
2024/02/13 09:37:44;;;;;;;11.80;6.10;;;;;;;6.44;75.87;98790.70;105989;1255;111206;-74
2024/02/13 09:40:13;;;;;;;11.30;6.70;;;;;;;6.49;75.87;98795.65;105323;1251;97822;-74
2024/02/13 09:42:45;;;;;;;11.90;6.30;;;;;;;6.53;75.65;98796.14;106481;1255;107707;-74
2024/02/13 09:45:14;;;;;;;9.70;6.40;;;;;;;6.56;75.57;98801.27;105453;1258;96675;-75
2024/02/13 09:47:42;;;;;;;9.00;5.20;;;;;;;6.60;75.67;98801.20;105941;1258;96713;-76
2024/02/13 09:50:12;;;;;;;11.40;6.00;;;;;;;6.61;75.26;98806.92;105822;1257;109454;-76
2024/02/13 09:52:54;;;;;;;10.20;5.60;;;;;;;6.64;75.29;98810.63;105526;1257;96499;-76
2024/02/13 09:55:22;;;;;;;10.10;6.40;;;;;;;6.63;74.84;98808.91;105434;1255;107676;-76
2024/02/13 09:57:51;;;;;;;13.30;6.10;;;;;;;6.64;74.80;98812.19;108435;1252;94832;-76
2024/02/13 10:00:19;;;;;;;11.70;6.10;;;;;;;6.64;74.68;98812.73;105999;1252;96656;-75
2024/02/13 10:02:48;;;;;;;11.10;6.60;;;;;;;6.61;74.45;98816.26;105559;1252;109972;-74
2024/02/13 10:05:16;;;;;;;12.60;4.90;;;;;;;6.62;74.32;98813.94;105674;1252;96577;-76
2024/02/13 10:07:46;;;;;;;12.90;6.70;;;;;;;6.61;74.11;98812.41;106318;1256;106518;-74
2024/02/13 10:10:14;;;;;;;11.20;6.60;;;;;;;6.62;74.11;98816.77;105509;1254;96640;-75
2024/02/13 10:12:53;;;;;;;11.10;6.70;;;;;;;6.64;73.97;98812.35;105480;1256;96588;-75
2024/02/13 10:15:22;;;;;;;14.00;7.50;;;;;;;6.67;73.94;98810.45;107189;1250;109389;-75
2024/02/13 10:17:51;;;;;;;11.70;6.70;;;;;;;6.72;73.78;98808.91;105832;1251;96500;-76
2024/02/13 10:20:19;;;;;;;12.80;7.00;;;;;;;6.75;73.71;98808.37;105454;1252;107648;-75
2024/02/13 10:22:49;;;;;;;10.80;5.90;;;;;;;6.80;73.75;98815.45;105718;1270;96658;-76
2024/02/13 10:25:21;;;;;;;9.50;5.50;;;;;;;6.83;73.41;98818.63;105703;1254;96678;-75
2024/02/13 10:27:54;;;;;;;12.50;7.50;;;;;;;6.77;73.20;98818.30;105507;1264;109534;-75
2024/02/13 10:30:24;;;;;;;13.00;6.20;;;;;;;6.77;73.03;98820.58;105435;1253;97807;-76
2024/02/13 10:32:52;;;;;;;13.00;6.20;;;;;;;6.73;73.06;98821.70;107739;1253;108287;-74
2024/02/13 10:35:22;;;;;;;11.90;5.90;;;;;;;6.69;73.02;98823.86;105506;1256;96607;-75
2024/02/13 10:37:50;;;;;;;10.90;6.20;;;;;;;6.71;73.06;98820.25;105534;1254;96580;-75
2024/02/13 10:40:20;;;;;;;12.50;6.10;;;;;;;6.72;72.89;98823.71;105497;1256;111139;-75
2024/02/13 10:42:49;;;;;;;10.20;5.80;;;;;;;6.71;73.03;98821.34;107741;1250;96433;-76
2024/02/13 10:45:17;;;;;;;15.70;8.70;;;;;;;6.70;72.96;98822.59;105785;1254;107666;-74
2024/02/13 10:47:51;;;;;;;14.40;7.10;;;;;;;6.68;72.98;98817.05;105138;1259;96689;-76
2024/02/13 10:50:20;;;;;;;14.10;7.70;;;;;;;6.68;72.63;98817.82;105637;1253;96505;-75
2024/02/13 10:52:58;;;;;;;13.90;7.60;;;;;;;6.67;72.72;98815.54;105835;1254;109961;-76
2024/02/13 10:55:26;;;;;;;14.10;7.50;;;;;;;6.67;72.84;98811.67;106003;1252;96541;-74
2024/02/13 10:57:56;;;;;;;12.90;8.10;;;;;;;6.75;73.03;98812.25;105496;1255;106826;-76
2024/02/13 11:03:37;;;;;;;15.20;9.20;;;;;;;6.94;72.37;98816.20;102225;1292;636168;-75
2024/02/13 11:06:05;;;;;;;10.40;5.40;;;;;;;6.92;72.21;98817.21;106939;1267;94684;-76
2024/02/13 11:08:34;;;;;;;11.60;6.10;;;;;;;6.91;72.08;98817.79;104709;1265;94342;-76
2024/02/13 11:11:03;;;;;;;10.70;6.70;;;;;;;6.94;72.17;98821.98;105124;1266;107203;-76
2024/02/13 11:13:32;;;;;;;12.10;6.50;;;;;;;6.97;71.83;98818.15;104826;1265;95699;-76
2024/02/13 11:16:04;;;;;;;11.30;6.10;;;;;;;6.95;71.53;98821.41;105590;1265;108087;-74
2024/02/13 11:18:34;;;;;;;11.70;6.90;;;;;;;6.97;71.67;98817.39;104745;1267;94242;-76
2024/02/13 11:21:06;;;;;;;8.90;5.20;;;;;;;6.96;71.24;98819.92;104853;1265;94337;-76
2024/02/13 11:23:35;;;;;;;11.50;5.80;;;;;;;6.98;71.27;98824.40;105193;1267;107559;-75
2024/02/13 11:26:03;;;;;;;7.40;4.60;;;;;;;7.02;70.99;98827.17;105485;1266;94348;-74
2024/02/13 11:28:33;;;;;;;13.90;6.50;;;;;;;7.00;70.64;98828.73;104803;1263;107636;-74
2024/02/13 11:31:12;;;;;;;9.80;5.70;;;;;;;7.02;70.79;98829.98;104963;1263;96176;-75
2024/02/13 11:34:07;;;;;;;7.20;4.70;;;;;;;7.07;70.56;98833.73;104449;1269;95257;-76
2024/02/13 11:36:36;;;;;;;10.00;5.40;;;;;;;7.11;70.82;98827.50;104827;1266;107066;-76
2024/02/13 11:39:06;;;;;;;7.50;4.60;;;;;;;7.18;70.65;98827.44;106122;1256;95418;-76
2024/02/13 11:41:35;;;;;;;9.60;4.90;;;;;;;7.16;70.00;98824.73;105920;1251;107573;-75
2024/02/13 11:44:08;;;;;;;8.50;5.20;;;;;;;7.14;69.85;98825.86;105755;1251;95187;-76
2024/02/13 11:46:38;;;;;;;8.40;4.60;;;;;;;7.19;70.10;98826.86;106960;1255;95183;-76
2024/02/13 11:49:09;;;;;;;8.30;5.50;;;;;;;7.19;69.67;98824.73;105345;1255;107953;-75